sensor_id;sensor_type;location;lat;lon;timestamp;temperature;humidity
56322;DHT22;42227;6.376;-10.782;2022-12-18T00:01:31;27.80;99.90
56322;DHT22;42227;6.376;-10.782;2022-12-18T00:04:01;27.80;99.90
56322;DHT22;42227;6.376;-10.782;2022-12-18T00:06:31;28.20;99.90
56322;DHT22;42227;6.376;-10.782;2022-12-18T00:09:00;28.30;99.90
56322;DHT22;42227;6.376;-10.782;2022-12-18T00:11:30;28.20;99.90
56322;DHT22;42227;6.376;-10.782;2022-12-18T00:14:00;28.10;99.90
56322;DHT22;42227;6.376;-10.782;2022-12-18T00:16:29;27.80;99.90
56322;DHT22;42227;6.376;-10.782;2022-12-18T00:18:58;27.70;99.90
56322;DHT22;42227;6.376;-10.782;2022-12-18T00:21:28;27.60;99.90
56322;DHT22;42227;6.376;-10.782;2022-12-18T00:23:58;27.80;99.90
56322;DHT22;42227;6.376;-10.782;2022-12-18T00:26:29;28.10;99.90
56322;DHT22;42227;6.376;-10.782;2022-12-18T00:29:02;28.20;99.90
56322;DHT22;42227;6.376;-10.782;2022-12-18T00:31:31;28.20;99.90
56322;DHT22;42227;6.376;-10.782;2022-12-18T00:34:00;27.90;99.90
56322;DHT22;42227;6.376;-10.782;2022-12-18T00:36:33;27.60;99.90
56322;DHT22;42227;6.376;-10.782;2022-12-18T00:39:03;27.50;99.90
56322;DHT22;42227;6.376;-10.782;2022-12-18T00:41:33;27.90;99.90
56322;DHT22;42227;6.376;-10.782;2022-12-18T00:44:01;28.00;99.90
56322;DHT22;42227;6.376;-10.782;2022-12-18T00:46:30;28.10;99.90
56322;DHT22;42227;6.376;-10.782;2022-12-18T00:48:59;28.10;99.90
56322;DHT22;42227;6.376;-10.782;2022-12-18T00:51:27;28.00;99.90
56322;DHT22;42227;6.376;-10.782;2022-12-18T00:53:56;27.90;99.90
56322;DHT22;42227;6.376;-10.782;2022-12-18T00:56:24;27.80;99.90
56322;DHT22;42227;6.376;-10.782;2022-12-18T00:58:53;27.70;99.90
56322;DHT22;42227;6.376;-10.782;2022-12-18T01:01:22;28.00;99.90
56322;DHT22;42227;6.376;-10.782;2022-12-18T01:03:50;28.30;99.90
56322;DHT22;42227;6.376;-10.782;2022-12-18T01:06:19;28.50;99.90
56322;DHT22;42227;6.376;-10.782;2022-12-18T01:08:50;28.30;99.90
56322;DHT22;42227;6.376;-10.782;2022-12-18T01:11:20;28.00;99.90
56322;DHT22;42227;6.376;-10.782;2022-12-18T01:13:48;27.80;99.90
56322;DHT22;42227;6.376;-10.782;2022-12-18T01:16:17;27.80;99.90
56322;DHT22;42227;6.376;-10.782;2022-12-18T01:18:45;27.70;99.90
56322;DHT22;42227;6.376;-10.782;2022-12-18T01:21:15;27.80;99.90
56322;DHT22;42227;6.376;-10.782;2022-12-18T01:23:44;27.90;99.90
56322;DHT22;42227;6.376;-10.782;2022-12-18T01:26:15;28.10;99.90
56322;DHT22;42227;6.376;-10.782;2022-12-18T01:28:44;28.20;99.90
56322;DHT22;42227;6.376;-10.782;2022-12-18T01:31:20;27.90;99.90
56322;DHT22;42227;6.376;-10.782;2022-12-18T01:33:50;27.60;99.90
56322;DHT22;42227;6.376;-10.782;2022-12-18T01:36:22;27.40;99.90
56322;DHT22;42227;6.376;-10.782;2022-12-18T01:38:52;27.10;99.90
56322;DHT22;42227;6.376;-10.782;2022-12-18T01:41:23;27.30;99.90
56322;DHT22;42227;6.376;-10.782;2022-12-18T01:43:55;27.40;99.90
56322;DHT22;42227;6.376;-10.782;2022-12-18T01:46:24;27.30;99.90
56322;DHT22;42227;6.376;-10.782;2022-12-18T01:49:00;27.10;99.90
56322;DHT22;42227;6.376;-10.782;2022-12-18T01:51:30;26.80;99.90
56322;DHT22;42227;6.376;-10.782;2022-12-18T01:53:59;26.70;99.90
56322;DHT22;42227;6.376;-10.782;2022-12-18T01:56:27;26.70;99.90
56322;DHT22;42227;6.376;-10.782;2022-12-18T01:59:04;26.70;99.90
56322;DHT22;42227;6.376;-10.782;2022-12-18T02:01:34;27.00;99.90
56322;DHT22;42227;6.376;-10.782;2022-12-18T02:04:24;26.80;99.90
56322;DHT22;42227;6.376;-10.782;2022-12-18T02:09:48;26.50;99.90
56322;DHT22;42227;6.376;-10.782;2022-12-18T02:12:25;26.40;99.90
56322;DHT22;42227;6.376;-10.782;2022-12-18T02:15:13;26.70;99.90
56322;DHT22;42227;6.376;-10.782;2022-12-18T02:18:09;27.00;99.90
56322;DHT22;42227;6.376;-10.782;2022-12-18T02:21:12;26.80;99.90
56322;DHT22;42227;6.376;-10.782;2022-12-18T02:26:26;26.40;99.90
56322;DHT22;42227;6.376;-10.782;2022-12-18T02:29:08;26.30;99.90
56322;DHT22;42227;6.376;-10.782;2022-12-18T02:31:47;26.50;99.90
56322;DHT22;42227;6.376;-10.782;2022-12-18T02:34:20;26.70;99.90
56322;DHT22;42227;6.376;-10.782;2022-12-18T02:36:51;26.80;99.90
56322;DHT22;42227;6.376;-10.782;2022-12-18T02:39:22;26.50;99.90
56322;DHT22;42227;6.376;-10.782;2022-12-18T02:42:00;26.20;99.90
56322;DHT22;42227;6.376;-10.782;2022-12-18T02:44:29;26.20;99.90
56322;DHT22;42227;6.376;-10.782;2022-12-18T02:46:58;26.20;99.90
56322;DHT22;42227;6.376;-10.782;2022-12-18T02:49:32;26.30;99.90
56322;DHT22;42227;6.376;-10.782;2022-12-18T02:57:58;26.80;99.90
56322;DHT22;42227;6.376;-10.782;2022-12-18T03:00:43;26.50;99.90
56322;DHT22;42227;6.376;-10.782;2022-12-18T03:03:29;26.30;99.90
56322;DHT22;42227;6.376;-10.782;2022-12-18T03:06:04;26.40;99.90
56322;DHT22;42227;6.376;-10.782;2022-12-18T03:08:46;26.60;99.90
56322;DHT22;42227;6.376;-10.782;2022-12-18T03:11:17;26.80;99.90
56322;DHT22;42227;6.376;-10.782;2022-12-18T03:13:52;26.50;99.90
56322;DHT22;42227;6.376;-10.782;2022-12-18T03:16:27;26.30;99.90
56322;DHT22;42227;6.376;-10.782;2022-12-18T03:19:00;26.20;99.90
56322;DHT22;42227;6.376;-10.782;2022-12-18T03:21:54;26.10;99.90
56322;DHT22;42227;6.376;-10.782;2022-12-18T03:24:26;26.20;99.90
56322;DHT22;42227;6.376;-10.782;2022-12-18T03:27:03;26.50;99.90
56322;DHT22;42227;6.376;-10.782;2022-12-18T03:30:01;26.40;99.90
56322;DHT22;42227;6.376;-10.782;2022-12-18T03:32:30;26.30;99.90
56322;DHT22;42227;6.376;-10.782;2022-12-18T03:35:04;26.30;99.90
56322;DHT22;42227;6.376;-10.782;2022-12-18T03:37:36;26.20;99.90
56322;DHT22;42227;6.376;-10.782;2022-12-18T03:40:06;26.30;99.90
56322;DHT22;42227;6.376;-10.782;2022-12-18T03:55:51;26.30;99.90
56322;DHT22;42227;6.376;-10.782;2022-12-18T03:58:24;26.30;99.90
56322;DHT22;42227;6.376;-10.782;2022-12-18T04:01:02;26.30;99.90
56322;DHT22;42227;6.376;-10.782;2022-12-18T04:03:36;26.50;99.90
56322;DHT22;42227;6.376;-10.782;2022-12-18T04:06:07;26.50;99.90
56322;DHT22;42227;6.376;-10.782;2022-12-18T04:08:39;26.30;99.90
56322;DHT22;42227;6.376;-10.782;2022-12-18T04:11:11;26.20;99.90
56322;DHT22;42227;6.376;-10.782;2022-12-18T04:13:39;26.10;99.90
56322;DHT22;42227;6.376;-10.782;2022-12-18T04:16:19;26.30;99.90
56322;DHT22;42227;6.376;-10.782;2022-12-18T04:18:51;26.30;99.90
56322;DHT22;42227;6.376;-10.782;2022-12-18T04:21:21;26.30;99.90
56322;DHT22;42227;6.376;-10.782;2022-12-18T04:23:50;26.10;99.90
56322;DHT22;42227;6.376;-10.782;2022-12-18T04:26:20;26.00;99.90
56322;DHT22;42227;6.376;-10.782;2022-12-18T04:29:09;26.00;99.90
56322;DHT22;42227;6.376;-10.782;2022-12-18T04:31:38;26.00;99.90
56322;DHT22;42227;6.376;-10.782;2022-12-18T04:34:06;26.20;99.90
56322;DHT22;42227;6.376;-10.782;2022-12-18T04:36:41;26.30;99.90
56322;DHT22;42227;6.376;-10.782;2022-12-18T04:39:09;26.20;99.90
56322;DHT22;42227;6.376;-10.782;2022-12-18T04:41:37;26.10;99.90
56322;DHT22;42227;6.376;-10.782;2022-12-18T04:44:06;25.90;99.90
56322;DHT22;42227;6.376;-10.782;2022-12-18T04:46:34;25.90;99.90
56322;DHT22;42227;6.376;-10.782;2022-12-18T04:49:02;25.80;99.90
56322;DHT22;42227;6.376;-10.782;2022-12-18T04:51:30;25.90;99.90
56322;DHT22;42227;6.376;-10.782;2022-12-18T04:53:59;26.10;99.90
56322;DHT22;42227;6.376;-10.782;2022-12-18T04:56:27;25.90;99.90
56322;DHT22;42227;6.376;-10.782;2022-12-18T04:58:55;25.70;99.90
56322;DHT22;42227;6.376;-10.782;2022-12-18T05:01:24;25.60;99.90
56322;DHT22;42227;6.376;-10.782;2022-12-18T05:04:01;25.50;99.90
56322;DHT22;42227;6.376;-10.782;2022-12-18T05:06:29;25.50;99.90
56322;DHT22;42227;6.376;-10.782;2022-12-18T05:08:58;25.80;99.90
56322;DHT22;42227;6.376;-10.782;2022-12-18T05:11:26;26.00;99.90
56322;DHT22;42227;6.376;-10.782;2022-12-18T05:13:57;26.10;99.90
56322;DHT22;42227;6.376;-10.782;2022-12-18T05:16:26;25.90;99.90
56322;DHT22;42227;6.376;-10.782;2022-12-18T05:18:54;25.80;99.90
56322;DHT22;42227;6.376;-10.782;2022-12-18T05:21:22;25.60;99.90
56322;DHT22;42227;6.376;-10.782;2022-12-18T05:23:51;25.50;99.90
56322;DHT22;42227;6.376;-10.782;2022-12-18T05:26:19;25.70;99.90
56322;DHT22;42227;6.376;-10.782;2022-12-18T05:28:47;25.90;99.90
56322;DHT22;42227;6.376;-10.782;2022-12-18T05:31:16;25.90;99.90
56322;DHT22;42227;6.376;-10.782;2022-12-18T05:33:44;25.60;99.90
56322;DHT22;42227;6.376;-10.782;2022-12-18T05:36:15;25.50;99.90
56322;DHT22;42227;6.376;-10.782;2022-12-18T05:38:43;25.50;99.90
56322;DHT22;42227;6.376;-10.782;2022-12-18T05:41:11;25.40;99.90
56322;DHT22;42227;6.376;-10.782;2022-12-18T05:43:41;25.50;99.90
56322;DHT22;42227;6.376;-10.782;2022-12-18T05:46:13;25.80;99.90
56322;DHT22;42227;6.376;-10.782;2022-12-18T05:48:43;26.00;99.90
56322;DHT22;42227;6.376;-10.782;2022-12-18T05:51:14;26.10;99.90
56322;DHT22;42227;6.376;-10.782;2022-12-18T05:53:43;25.90;99.90
56322;DHT22;42227;6.376;-10.782;2022-12-18T05:56:21;25.70;99.90
56322;DHT22;42227;6.376;-10.782;2022-12-18T05:58:53;25.60;99.90
56322;DHT22;42227;6.376;-10.782;2022-12-18T06:01:24;25.50;99.90
56322;DHT22;42227;6.376;-10.782;2022-12-18T06:03:53;25.50;99.90
56322;DHT22;42227;6.376;-10.782;2022-12-18T06:06:25;25.80;99.90
56322;DHT22;42227;6.376;-10.782;2022-12-18T06:08:54;25.90;99.90
56322;DHT22;42227;6.376;-10.782;2022-12-18T06:11:25;25.70;99.90
56322;DHT22;42227;6.376;-10.782;2022-12-18T06:13:55;25.60;99.90
56322;DHT22;42227;6.376;-10.782;2022-12-18T06:16:27;25.60;99.90
56322;DHT22;42227;6.376;-10.782;2022-12-18T06:18:59;25.60;99.90
56322;DHT22;42227;6.376;-10.782;2022-12-18T06:21:28;25.90;99.90
56322;DHT22;42227;6.376;-10.782;2022-12-18T06:23:59;25.60;99.90
56322;DHT22;42227;6.376;-10.782;2022-12-18T06:26:27;25.40;99.90
56322;DHT22;42227;6.376;-10.782;2022-12-18T06:28:55;25.00;99.90
56322;DHT22;42227;6.376;-10.782;2022-12-18T06:31:25;24.90;99.90
56322;DHT22;42227;6.376;-10.782;2022-12-18T06:33:53;24.80;99.90
56322;DHT22;42227;6.376;-10.782;2022-12-18T06:36:21;24.70;99.90
56322;DHT22;42227;6.376;-10.782;2022-12-18T06:38:50;24.70;99.90
56322;DHT22;42227;6.376;-10.782;2022-12-18T06:41:21;24.70;99.90
56322;DHT22;42227;6.376;-10.782;2022-12-18T06:43:49;24.90;99.90
56322;DHT22;42227;6.376;-10.782;2022-12-18T06:46:21;24.80;99.90
56322;DHT22;42227;6.376;-10.782;2022-12-18T06:48:50;24.80;99.90
56322;DHT22;42227;6.376;-10.782;2022-12-18T06:51:20;24.70;99.90
56322;DHT22;42227;6.376;-10.782;2022-12-18T06:53:49;24.80;99.90
56322;DHT22;42227;6.376;-10.782;2022-12-18T06:56:17;25.00;99.90
56322;DHT22;42227;6.376;-10.782;2022-12-18T06:58:45;25.10;99.90
56322;DHT22;42227;6.376;-10.782;2022-12-18T07:01:16;25.20;99.90
56322;DHT22;42227;6.376;-10.782;2022-12-18T07:03:45;25.10;99.90
56322;DHT22;42227;6.376;-10.782;2022-12-18T07:06:19;25.00;99.90
56322;DHT22;42227;6.376;-10.782;2022-12-18T07:08:49;25.00;99.90
56322;DHT22;42227;6.376;-10.782;2022-12-18T07:11:18;25.10;99.90
56322;DHT22;42227;6.376;-10.782;2022-12-18T07:13:47;25.10;99.90
56322;DHT22;42227;6.376;-10.782;2022-12-18T07:16:17;25.30;99.90
56322;DHT22;42227;6.376;-10.782;2022-12-18T07:18:53;25.30;99.90
56322;DHT22;42227;6.376;-10.782;2022-12-18T07:21:23;25.20;99.90
56322;DHT22;42227;6.376;-10.782;2022-12-18T07:23:51;25.20;99.90
56322;DHT22;42227;6.376;-10.782;2022-12-18T07:26:21;25.10;99.90
56322;DHT22;42227;6.376;-10.782;2022-12-18T07:28:50;25.10;99.90
56322;DHT22;42227;6.376;-10.782;2022-12-18T07:31:22;25.10;99.90
56322;DHT22;42227;6.376;-10.782;2022-12-18T07:33:51;25.30;99.90
56322;DHT22;42227;6.376;-10.782;2022-12-18T07:36:20;25.50;99.90
56322;DHT22;42227;6.376;-10.782;2022-12-18T07:38:49;25.40;99.90
56322;DHT22;42227;6.376;-10.782;2022-12-18T07:41:18;25.40;99.90
56322;DHT22;42227;6.376;-10.782;2022-12-18T07:43:47;25.50;99.90
56322;DHT22;42227;6.376;-10.782;2022-12-18T07:46:17;25.90;99.90
56322;DHT22;42227;6.376;-10.782;2022-12-18T07:48:46;26.10;99.90
56322;DHT22;42227;6.376;-10.782;2022-12-18T07:51:17;26.60;99.90
56322;DHT22;42227;6.376;-10.782;2022-12-18T07:53:46;26.90;99.90
56322;DHT22;42227;6.376;-10.782;2022-12-18T07:56:19;26.90;99.90
56322;DHT22;42227;6.376;-10.782;2022-12-18T07:58:58;27.10;99.90
56322;DHT22;42227;6.376;-10.782;2022-12-18T08:01:30;27.10;99.90
56322;DHT22;42227;6.376;-10.782;2022-12-18T08:03:58;27.40;99.90
56322;DHT22;42227;6.376;-10.782;2022-12-18T08:06:26;28.10;99.90
56322;DHT22;42227;6.376;-10.782;2022-12-18T08:08:56;28.50;99.90
56322;DHT22;42227;6.376;-10.782;2022-12-18T08:11:28;28.00;99.90
56322;DHT22;42227;6.376;-10.782;2022-12-18T08:13:57;28.50;99.90
56322;DHT22;42227;6.376;-10.782;2022-12-18T08:16:26;29.50;99.90
56322;DHT22;42227;6.376;-10.782;2022-12-18T08:18:54;30.20;99.90
56322;DHT22;42227;6.376;-10.782;2022-12-18T08:21:28;30.60;99.90
56322;DHT22;42227;6.376;-10.782;2022-12-18T08:23:59;31.30;99.90
56322;DHT22;42227;6.376;-10.782;2022-12-18T08:26:31;31.20;99.90
56322;DHT22;42227;6.376;-10.782;2022-12-18T08:29:00;30.60;99.90
56322;DHT22;42227;6.376;-10.782;2022-12-18T08:31:29;31.90;99.90
56322;DHT22;42227;6.376;-10.782;2022-12-18T08:33:58;32.20;99.90
56322;DHT22;42227;6.376;-10.782;2022-12-18T08:36:26;31.20;99.90
56322;DHT22;42227;6.376;-10.782;2022-12-18T08:38:55;31.90;99.90
56322;DHT22;42227;6.376;-10.782;2022-12-18T08:41:25;33.30;99.90
56322;DHT22;42227;6.376;-10.782;2022-12-18T08:43:53;34.40;99.90
56322;DHT22;42227;6.376;-10.782;2022-12-18T08:46:24;35.50;98.70
56322;DHT22;42227;6.376;-10.782;2022-12-18T08:48:54;33.90;99.90
56322;DHT22;42227;6.376;-10.782;2022-12-18T08:51:22;32.80;99.90
56322;DHT22;42227;6.376;-10.782;2022-12-18T08:53:51;31.00;99.90
56322;DHT22;42227;6.376;-10.782;2022-12-18T08:56:19;29.80;99.90
56322;DHT22;42227;6.376;-10.782;2022-12-18T08:58:47;30.50;99.90
56322;DHT22;42227;6.376;-10.782;2022-12-18T09:01:18;30.40;99.90
56322;DHT22;42227;6.376;-10.782;2022-12-18T09:03:47;29.80;99.90
56322;DHT22;42227;6.376;-10.782;2022-12-18T09:06:21;29.60;99.90
56322;DHT22;42227;6.376;-10.782;2022-12-18T09:08:49;29.60;99.90
56322;DHT22;42227;6.376;-10.782;2022-12-18T09:11:21;30.00;99.90
56322;DHT22;42227;6.376;-10.782;2022-12-18T09:13:51;30.40;99.90
56322;DHT22;42227;6.376;-10.782;2022-12-18T09:16:20;30.30;99.90
56322;DHT22;42227;6.376;-10.782;2022-12-18T09:18:56;30.50;99.90
56322;DHT22;42227;6.376;-10.782;2022-12-18T09:21:25;31.00;99.90
56322;DHT22;42227;6.376;-10.782;2022-12-18T09:23:55;30.90;99.90
56322;DHT22;42227;6.376;-10.782;2022-12-18T09:26:24;30.70;99.90
56322;DHT22;42227;6.376;-10.782;2022-12-18T09:28:53;30.10;99.90
56322;DHT22;42227;6.376;-10.782;2022-12-18T09:31:22;30.10;99.90
56322;DHT22;42227;6.376;-10.782;2022-12-18T09:33:51;30.80;99.90
56322;DHT22;42227;6.376;-10.782;2022-12-18T09:36:19;31.20;99.90
56322;DHT22;42227;6.376;-10.782;2022-12-18T09:38:48;31.10;99.90
56322;DHT22;42227;6.376;-10.782;2022-12-18T09:43:59;30.70;99.90
56322;DHT22;42227;6.376;-10.782;2022-12-18T09:46:42;30.70;99.90
56322;DHT22;42227;6.376;-10.782;2022-12-18T09:49:16;31.10;99.90
56322;DHT22;42227;6.376;-10.782;2022-12-18T09:51:59;31.10;99.90
56322;DHT22;42227;6.376;-10.782;2022-12-18T09:54:38;31.40;99.90
56322;DHT22;42227;6.376;-10.782;2022-12-18T09:57:21;31.30;99.90
56322;DHT22;42227;6.376;-10.782;2022-12-18T10:02:37;29.80;99.90
56322;DHT22;42227;6.376;-10.782;2022-12-18T10:05:14;29.70;99.90
56322;DHT22;42227;6.376;-10.782;2022-12-18T10:12:55;30.10;99.90
56322;DHT22;42227;6.376;-10.782;2022-12-18T10:21:47;29.60;99.90
56322;DHT22;42227;6.376;-10.782;2022-12-18T10:27:22;30.70;99.90
56322;DHT22;42227;6.376;-10.782;2022-12-18T10:29:47;31.30;99.90
56322;DHT22;42227;6.376;-10.782;2022-12-18T10:32:28;31.50;99.90
56322;DHT22;42227;6.376;-10.782;2022-12-18T10:34:57;31.10;99.90
56322;DHT22;42227;6.376;-10.782;2022-12-18T10:37:29;31.10;99.90
56322;DHT22;42227;6.376;-10.782;2022-12-18T10:40:11;31.20;99.90
56322;DHT22;42227;6.376;-10.782;2022-12-18T10:43:03;31.00;99.90
56322;DHT22;42227;6.376;-10.782;2022-12-18T10:45:32;31.10;99.90
56322;DHT22;42227;6.376;-10.782;2022-12-18T10:48:01;31.70;99.90
56322;DHT22;42227;6.376;-10.782;2022-12-18T10:50:34;31.50;99.90
56322;DHT22;42227;6.376;-10.782;2022-12-18T10:53:26;30.90;99.90
56322;DHT22;42227;6.376;-10.782;2022-12-18T10:55:58;31.30;99.90
56322;DHT22;42227;6.376;-10.782;2022-12-18T10:58:37;31.20;99.90
56322;DHT22;42227;6.376;-10.782;2022-12-18T11:01:18;30.90;99.90
56322;DHT22;42227;6.376;-10.782;2022-12-18T11:04:09;31.10;99.90
56322;DHT22;42227;6.376;-10.782;2022-12-18T11:07:02;31.00;99.90
56322;DHT22;42227;6.376;-10.782;2022-12-18T11:09:36;31.10;99.90
56322;DHT22;42227;6.376;-10.782;2022-12-18T11:12:15;31.20;99.90
56322;DHT22;42227;6.376;-10.782;2022-12-18T11:14:48;31.00;99.90
56322;DHT22;42227;6.376;-10.782;2022-12-18T11:17:19;30.40;99.90
56322;DHT22;42227;6.376;-10.782;2022-12-18T11:20:23;30.00;99.90
56322;DHT22;42227;6.376;-10.782;2022-12-18T11:23:03;30.60;99.90
56322;DHT22;42227;6.376;-10.782;2022-12-18T11:25:33;31.00;99.90
56322;DHT22;42227;6.376;-10.782;2022-12-18T11:30:36;31.20;99.90
56322;DHT22;42227;6.376;-10.782;2022-12-18T11:36:00;30.40;99.90
56322;DHT22;42227;6.376;-10.782;2022-12-18T11:38:34;31.00;99.90
56322;DHT22;42227;6.376;-10.782;2022-12-18T11:44:02;31.60;99.90
56322;DHT22;42227;6.376;-10.782;2022-12-18T11:46:39;31.40;99.90
56322;DHT22;42227;6.376;-10.782;2022-12-18T11:49:32;31.40;99.90
56322;DHT22;42227;6.376;-10.782;2022-12-18T11:52:22;31.20;99.90
56322;DHT22;42227;6.376;-10.782;2022-12-18T11:54:52;31.30;99.90
56322;DHT22;42227;6.376;-10.782;2022-12-18T12:05:56;31.90;99.90
56322;DHT22;42227;6.376;-10.782;2022-12-18T12:08:38;32.00;99.90
56322;DHT22;42227;6.376;-10.782;2022-12-18T12:11:18;31.50;99.90
56322;DHT22;42227;6.376;-10.782;2022-12-18T12:14:06;31.10;99.90
56322;DHT22;42227;6.376;-10.782;2022-12-18T12:19:38;31.00;99.90
56322;DHT22;42227;6.376;-10.782;2022-12-18T12:22:23;31.40;99.90
56322;DHT22;42227;6.376;-10.782;2022-12-18T12:25:21;31.60;99.90
56322;DHT22;42227;6.376;-10.782;2022-12-18T12:28:55;31.80;99.90
56322;DHT22;42227;6.376;-10.782;2022-12-18T12:31:13;31.70;99.90
56322;DHT22;42227;6.376;-10.782;2022-12-18T12:34:38;31.50;99.90
56322;DHT22;42227;6.376;-10.782;2022-12-18T12:39:18;31.60;99.90
56322;DHT22;42227;6.376;-10.782;2022-12-18T12:41:47;32.10;99.90
56322;DHT22;42227;6.376;-10.782;2022-12-18T12:44:44;32.10;99.90
56322;DHT22;42227;6.376;-10.782;2022-12-18T12:47:38;32.00;99.90
56322;DHT22;42227;6.376;-10.782;2022-12-18T12:50:19;31.10;99.90
56322;DHT22;42227;6.376;-10.782;2022-12-18T12:52:52;30.50;99.90
56322;DHT22;42227;6.376;-10.782;2022-12-18T12:55:26;30.90;99.90
56322;DHT22;42227;6.376;-10.782;2022-12-18T12:58:16;31.40;99.90
56322;DHT22;42227;6.376;-10.782;2022-12-18T13:04:14;32.00;99.90
56322;DHT22;42227;6.376;-10.782;2022-12-18T13:09:16;31.20;99.90
56322;DHT22;42227;6.376;-10.782;2022-12-18T13:11:46;31.20;99.90
56322;DHT22;42227;6.376;-10.782;2022-12-18T13:14:32;31.50;99.90
56322;DHT22;42227;6.376;-10.782;2022-12-18T13:19:51;32.30;99.90
56322;DHT22;42227;6.376;-10.782;2022-12-18T13:22:23;32.40;99.90
56322;DHT22;42227;6.376;-10.782;2022-12-18T13:24:53;32.20;99.90
56322;DHT22;42227;6.376;-10.782;2022-12-18T13:38:33;31.80;99.90
56322;DHT22;42227;6.376;-10.782;2022-12-18T13:49:40;32.20;99.90
56322;DHT22;42227;6.376;-10.782;2022-12-18T13:52:33;32.00;99.90
56322;DHT22;42227;6.376;-10.782;2022-12-18T13:55:06;31.80;99.90
56322;DHT22;42227;6.376;-10.782;2022-12-18T13:57:37;31.50;99.90
56322;DHT22;42227;6.376;-10.782;2022-12-18T14:00:26;31.30;99.90
56322;DHT22;42227;6.376;-10.782;2022-12-18T14:02:56;31.40;99.90
56322;DHT22;42227;6.376;-10.782;2022-12-18T14:07:59;31.90;99.90
56322;DHT22;42227;6.376;-10.782;2022-12-18T14:10:32;32.00;99.90
56322;DHT22;42227;6.376;-10.782;2022-12-18T14:13:32;32.00;99.90
56322;DHT22;42227;6.376;-10.782;2022-12-18T14:16:03;32.20;99.90
56322;DHT22;42227;6.376;-10.782;2022-12-18T14:18:41;32.20;99.90
56322;DHT22;42227;6.376;-10.782;2022-12-18T14:21:30;31.80;99.90
56322;DHT22;42227;6.376;-10.782;2022-12-18T14:24:27;31.70;99.90
56322;DHT22;42227;6.376;-10.782;2022-12-18T14:27:17;31.80;99.90
56322;DHT22;42227;6.376;-10.782;2022-12-18T14:29:47;31.80;99.90
56322;DHT22;42227;6.376;-10.782;2022-12-18T14:32:20;31.70;99.90
56322;DHT22;42227;6.376;-10.782;2022-12-18T14:34:51;31.80;99.90
56322;DHT22;42227;6.376;-10.782;2022-12-18T14:37:25;31.30;99.90
56322;DHT22;42227;6.376;-10.782;2022-12-18T14:39:58;31.30;99.90
56322;DHT22;42227;6.376;-10.782;2022-12-18T14:42:32;31.30;99.90
56322;DHT22;42227;6.376;-10.782;2022-12-18T14:45:38;31.30;99.90
56322;DHT22;42227;6.376;-10.782;2022-12-18T14:48:39;31.30;99.90
56322;DHT22;42227;6.376;-10.782;2022-12-18T14:51:20;31.60;99.90
56322;DHT22;42227;6.376;-10.782;2022-12-18T14:53:57;31.60;99.90
56322;DHT22;42227;6.376;-10.782;2022-12-18T14:56:31;31.20;99.90
56322;DHT22;42227;6.376;-10.782;2022-12-18T14:59:02;31.00;99.90
56322;DHT22;42227;6.376;-10.782;2022-12-18T15:01:37;31.00;99.90
56322;DHT22;42227;6.376;-10.782;2022-12-18T15:04:27;31.30;99.90
56322;DHT22;42227;6.376;-10.782;2022-12-18T15:10:22;31.70;99.90
56322;DHT22;42227;6.376;-10.782;2022-12-18T15:13:09;31.60;99.90
56322;DHT22;42227;6.376;-10.782;2022-12-18T15:23:36;31.30;99.90
56322;DHT22;42227;6.376;-10.782;2022-12-18T15:26:08;31.60;99.90
56322;DHT22;42227;6.376;-10.782;2022-12-18T15:28:57;31.70;99.90
56322;DHT22;42227;6.376;-10.782;2022-12-18T15:31:33;31.60;99.90
56322;DHT22;42227;6.376;-10.782;2022-12-18T15:34:19;31.10;99.90
56322;DHT22;42227;6.376;-10.782;2022-12-18T15:36:49;30.90;99.90
56322;DHT22;42227;6.376;-10.782;2022-12-18T15:39:18;30.80;99.90
56322;DHT22;42227;6.376;-10.782;2022-12-18T15:41:46;31.30;99.90
56322;DHT22;42227;6.376;-10.782;2022-12-18T15:44:23;31.40;99.90
56322;DHT22;42227;6.376;-10.782;2022-12-18T15:46:52;31.70;99.90
56322;DHT22;42227;6.376;-10.782;2022-12-18T15:49:22;31.30;99.90
56322;DHT22;42227;6.376;-10.782;2022-12-18T15:51:57;31.10;99.90
56322;DHT22;42227;6.376;-10.782;2022-12-18T15:54:27;30.80;99.90
56322;DHT22;42227;6.376;-10.782;2022-12-18T15:56:55;30.60;99.90
56322;DHT22;42227;6.376;-10.782;2022-12-18T15:59:25;30.80;99.90
56322;DHT22;42227;6.376;-10.782;2022-12-18T16:01:53;30.90;99.90
56322;DHT22;42227;6.376;-10.782;2022-12-18T16:04:22;31.00;99.90
56322;DHT22;42227;6.376;-10.782;2022-12-18T16:06:51;31.20;99.90
56322;DHT22;42227;6.376;-10.782;2022-12-18T16:09:39;31.10;99.90
56322;DHT22;42227;6.376;-10.782;2022-12-18T16:12:34;30.70;99.90
56322;DHT22;42227;6.376;-10.782;2022-12-18T16:15:04;30.60;99.90
56322;DHT22;42227;6.376;-10.782;2022-12-18T16:17:33;30.50;99.90
56322;DHT22;42227;6.376;-10.782;2022-12-18T16:20:02;30.70;99.90
56322;DHT22;42227;6.376;-10.782;2022-12-18T16:22:30;31.00;99.90
56322;DHT22;42227;6.376;-10.782;2022-12-18T16:24:59;31.10;99.90
56322;DHT22;42227;6.376;-10.782;2022-12-18T16:27:27;31.20;99.90
56322;DHT22;42227;6.376;-10.782;2022-12-18T16:29:55;30.90;99.90
56322;DHT22;42227;6.376;-10.782;2022-12-18T16:32:23;30.60;99.90
56322;DHT22;42227;6.376;-10.782;2022-12-18T16:34:52;30.50;99.90
56322;DHT22;42227;6.376;-10.782;2022-12-18T16:37:20;30.40;99.90
56322;DHT22;42227;6.376;-10.782;2022-12-18T16:39:48;30.40;99.90
56322;DHT22;42227;6.376;-10.782;2022-12-18T16:42:18;30.80;99.90
56322;DHT22;42227;6.376;-10.782;2022-12-18T16:44:48;31.00;99.90
56322;DHT22;42227;6.376;-10.782;2022-12-18T16:47:17;30.90;99.90
56322;DHT22;42227;6.376;-10.782;2022-12-18T16:49:46;30.90;99.90
56322;DHT22;42227;6.376;-10.782;2022-12-18T16:52:16;30.60;99.90
56322;DHT22;42227;6.376;-10.782;2022-12-18T16:54:44;30.30;99.90
56322;DHT22;42227;6.376;-10.782;2022-12-18T16:57:16;30.10;99.90
56322;DHT22;42227;6.376;-10.782;2022-12-18T16:59:45;30.10;99.90
56322;DHT22;42227;6.376;-10.782;2022-12-18T17:02:17;30.40;99.90
56322;DHT22;42227;6.376;-10.782;2022-12-18T17:04:53;30.60;99.90
56322;DHT22;42227;6.376;-10.782;2022-12-18T17:07:22;30.70;99.90
56322;DHT22;42227;6.376;-10.782;2022-12-18T17:09:50;30.70;99.90
56322;DHT22;42227;6.376;-10.782;2022-12-18T17:12:19;30.50;99.90
56322;DHT22;42227;6.376;-10.782;2022-12-18T17:14:48;30.20;99.90
56322;DHT22;42227;6.376;-10.782;2022-12-18T17:17:18;29.90;99.90
56322;DHT22;42227;6.376;-10.782;2022-12-18T17:19:50;29.80;99.90
56322;DHT22;42227;6.376;-10.782;2022-12-18T17:22:20;30.10;99.90
56322;DHT22;42227;6.376;-10.782;2022-12-18T17:24:48;30.60;99.90
56322;DHT22;42227;6.376;-10.782;2022-12-18T17:27:17;30.80;99.90
56322;DHT22;42227;6.376;-10.782;2022-12-18T17:29:45;30.70;99.90
56322;DHT22;42227;6.376;-10.782;2022-12-18T17:32:16;30.60;99.90
56322;DHT22;42227;6.376;-10.782;2022-12-18T17:34:45;29.90;99.90
56322;DHT22;42227;6.376;-10.782;2022-12-18T17:37:13;29.70;99.90
56322;DHT22;42227;6.376;-10.782;2022-12-18T17:39:41;29.60;99.90
56322;DHT22;42227;6.376;-10.782;2022-12-18T17:42:10;29.80;99.90